createdAt,value
2022-09-21T00:01:03.622Z,88.12
2022-09-21T00:03:36.513Z,87.66
2022-09-21T00:06:10.654Z,87.90
2022-09-21T00:08:44.762Z,87.25
2022-09-21T00:11:20.178Z,86.76
2022-09-21T00:13:54.528Z,87.54
2022-09-21T00:16:27.802Z,86.81
2022-09-21T00:19:00.513Z,86.57
2022-09-21T00:21:33.645Z,86.96
2022-09-21T00:24:07.583Z,87.32
2022-09-21T00:26:39.875Z,87.42
2022-09-21T00:29:13.233Z,86.96
2022-09-21T00:31:45.640Z,87.19
2022-09-21T00:34:18.070Z,87.47
2022-09-21T00:36:50.661Z,87.84
2022-09-21T00:39:23.609Z,88.24
2022-09-21T00:41:55.989Z,88.45
2022-09-21T00:44:30.491Z,88.92
2022-09-21T00:47:08.068Z,88.18
2022-09-21T00:49:42.381Z,88.43
2022-09-21T00:52:18.495Z,88.27
2022-09-21T00:54:54.853Z,87.91
2022-09-21T00:57:30.692Z,87.89
2022-09-21T01:00:08.127Z,87.82
2022-09-21T01:02:40.987Z,87.96
2022-09-21T01:05:13.313Z,87.71
2022-09-21T01:07:47.866Z,87.68
2022-09-21T01:10:21.457Z,86.94
2022-09-21T01:13:05.237Z,86.94
2022-09-21T01:15:44.998Z,87.50
2022-09-21T01:18:20.233Z,87.52
2022-09-21T01:21:18.107Z,88.11
2022-09-21T01:24:18.458Z,87.66
2022-09-21T01:27:16.214Z,87.83
2022-09-21T01:29:52.615Z,88.42
2022-09-21T01:32:29.966Z,89.17
2022-09-21T01:35:06.434Z,88.56
2022-09-21T01:37:41.975Z,88.38
2022-09-21T01:40:21.010Z,87.99
2022-09-21T01:42:55.378Z,87.71
2022-09-21T01:45:32.078Z,88.01
2022-09-21T01:48:04.964Z,87.78
2022-09-21T01:50:41.641Z,88.33
2022-09-21T01:53:21.221Z,88.61
2022-09-21T01:55:57.662Z,88.78
2022-09-21T01:58:33.347Z,88.09
2022-09-21T02:01:11.627Z,88.58
2022-09-21T02:03:49.606Z,87.92
2022-09-21T02:06:24.641Z,88.11
2022-09-21T02:08:57.430Z,87.90
2022-09-21T02:11:29.749Z,87.68
2022-09-21T02:14:02.634Z,87.49
2022-09-21T02:16:38.994Z,87.35
2022-09-21T02:19:17.085Z,87.63
2022-09-21T02:21:57.285Z,87.22
2022-09-21T02:24:38.214Z,86.74
2022-09-21T02:27:21.909Z,87.30
2022-09-21T02:30:02.949Z,87.75
2022-09-21T02:32:46.238Z,88.37
2022-09-21T02:35:30.818Z,87.58
2022-09-21T02:38:10.734Z,87.37
2022-09-21T02:40:50.989Z,87.02
2022-09-21T02:43:27.622Z,87.42
2022-09-21T02:46:05.524Z,87.95
2022-09-21T02:48:44.160Z,87.93
2022-09-21T02:51:21.564Z,87.20
2022-09-21T02:53:55.213Z,87.02
2022-09-21T02:56:30.214Z,87.03
2022-09-21T02:59:05.470Z,86.95
2022-09-21T03:01:40.071Z,86.18
2022-09-21T03:04:13.099Z,85.86
2022-09-21T03:06:45.450Z,86.88
2022-09-21T03:09:17.958Z,86.77
2022-09-21T03:11:50.307Z,86.55
2022-09-21T03:14:22.614Z,86.38
2022-09-21T03:16:54.901Z,85.90
2022-09-21T03:19:28.635Z,86.12
2022-09-21T03:22:00.919Z,86.52
2022-09-21T03:24:48.100Z,86.48
2022-09-21T03:27:21.542Z,86.39
2022-09-21T03:29:53.843Z,86.19
2022-09-21T03:32:26.191Z,86.22
2022-09-21T03:34:59.150Z,86.62
2022-09-21T03:37:31.439Z,86.64
2022-09-21T03:40:04.611Z,87.86
2022-09-21T03:42:36.957Z,88.05
2022-09-21T03:45:11.365Z,87.76
2022-09-21T03:47:43.688Z,86.44
2022-09-21T03:50:16.929Z,87.06
2022-09-21T03:52:49.231Z,87.36
2022-09-21T03:55:21.923Z,87.33
2022-09-21T03:57:54.211Z,87.68
2022-09-21T04:00:26.955Z,87.75
2022-09-21T04:02:59.486Z,88.29
2022-09-21T04:05:32.474Z,88.25
2022-09-21T04:08:04.830Z,87.42
2022-09-21T04:10:41.450Z,87.63
2022-09-21T04:13:13.786Z,87.46
2022-09-21T04:15:46.088Z,87.58
2022-09-21T04:18:19.480Z,87.98
2022-09-21T04:20:52.407Z,88.40
2022-09-21T04:23:24.706Z,89.00
2022-09-21T04:25:57.355Z,88.91
2022-09-21T04:28:30.567Z,89.83
2022-09-21T04:31:03.336Z,89.31
2022-09-21T04:33:35.991Z,90.24
2022-09-21T04:36:08.954Z,90.30
2022-09-21T04:38:41.394Z,90.55
2022-09-21T04:41:14.112Z,90.45
2022-09-21T04:43:47.927Z,90.77
2022-09-21T04:46:20.740Z,90.94
2022-09-21T04:48:53.167Z,91.26
2022-09-21T04:51:26.199Z,91.58
2022-09-21T04:53:58.605Z,90.90
2022-09-21T04:56:30.931Z,91.70
2022-09-21T04:59:03.497Z,91.36
2022-09-21T05:01:35.846Z,91.73
2022-09-21T05:04:08.147Z,91.68
2022-09-21T05:06:41.184Z,92.27
2022-09-21T05:09:31.558Z,92.19
2022-09-21T05:12:03.962Z,91.72
2022-09-21T05:14:36.769Z,91.98
2022-09-21T05:17:09.562Z,91.56
2022-09-21T05:19:41.870Z,92.57
2022-09-21T05:22:15.070Z,92.41
2022-09-21T05:24:47.628Z,92.32
2022-09-21T05:27:19.947Z,93.00
2022-09-21T05:29:52.732Z,92.67
2022-09-21T05:32:33.645Z,92.75
2022-09-21T05:35:14.323Z,92.82
2022-09-21T05:37:53.573Z,93.00
2022-09-21T05:40:26.774Z,93.00
2022-09-21T05:42:59.632Z,93.37
2022-09-21T05:45:32.783Z,93.95
2022-09-21T05:48:13.550Z,93.58
2022-09-21T05:50:58.874Z,93.58
2022-09-21T05:53:48.232Z,93.58
2022-09-21T05:56:34.241Z,93.03
2022-09-21T05:59:21.509Z,93.01
2022-09-21T06:02:02.264Z,93.05
2022-09-21T06:04:35.126Z,92.10
2022-09-21T06:07:07.382Z,91.65
2022-09-21T06:09:43.204Z,91.85
2022-09-21T06:12:15.778Z,91.16
2022-09-21T06:14:48.119Z,90.55
2022-09-21T06:17:20.370Z,91.76
2022-09-21T06:19:52.753Z,90.46
2022-09-21T06:22:25.132Z,88.88
2022-09-21T06:24:58.089Z,86.76
2022-09-21T06:27:30.551Z,83.90
2022-09-21T06:30:03.077Z,82.25
2022-09-21T06:32:35.996Z,80.79
2022-09-21T06:35:09.094Z,80.20
2022-09-21T06:37:41.941Z,76.40
2022-09-21T06:40:14.972Z,76.67
2022-09-21T06:42:47.298Z,75.85
2022-09-21T06:45:19.623Z,76.09
2022-09-21T06:47:51.954Z,77.17
2022-09-21T06:50:24.429Z,75.20
2022-09-21T06:52:59.535Z,75.30
2022-09-21T06:55:32.647Z,76.31
2022-09-21T06:58:05.033Z,75.35
2022-09-21T07:00:37.405Z,75.29
2022-09-21T07:03:10.766Z,74.70
2022-09-21T07:05:44.903Z,74.09
2022-09-21T07:11:11.059Z,70.91
2022-09-21T07:13:43.366Z,70.19
2022-09-21T07:16:16.095Z,69.40
2022-09-21T07:18:48.610Z,69.75
2022-09-21T07:21:21.194Z,68.38
2022-09-21T07:23:53.591Z,67.94
2022-09-21T07:26:26.606Z,69.88
2022-09-21T07:28:58.907Z,69.40
2022-09-21T07:31:31.268Z,69.83
2022-09-21T07:34:04.015Z,70.23
2022-09-21T07:36:36.555Z,70.36
2022-09-21T07:39:09.472Z,68.91
2022-09-21T07:41:42.462Z,68.79
2022-09-21T07:44:14.824Z,69.15
2022-09-21T07:46:48.389Z,69.08
2022-09-21T07:49:20.761Z,68.96
2022-09-21T07:51:53.659Z,69.51
2022-09-21T07:54:26.002Z,68.13
2022-09-21T07:57:16.972Z,67.62
2022-09-21T07:59:49.300Z,66.71
2022-09-21T08:02:22.155Z,67.48
2022-09-21T08:04:54.715Z,66.57
2022-09-21T08:07:27.687Z,64.34
2022-09-21T08:10:00.032Z,65.31
2022-09-21T08:12:33.052Z,65.23
2022-09-21T08:15:07.172Z,66.29
2022-09-21T08:17:39.508Z,66.67
2022-09-21T08:20:13.137Z,63.90
2022-09-21T08:22:45.670Z,64.79
2022-09-21T08:25:17.956Z,64.44
2022-09-21T08:27:50.987Z,62.84
2022-09-21T08:30:23.371Z,62.36
2022-09-21T08:32:55.752Z,61.82
2022-09-21T08:35:28.062Z,62.22
2022-09-21T08:38:00.436Z,61.83
2022-09-21T08:40:33.583Z,60.15
2022-09-21T08:43:11.423Z,60.96
2022-09-21T08:45:46.016Z,60.43
2022-09-21T08:48:26.921Z,59.38
2022-09-21T08:51:07.386Z,58.88
2022-09-21T08:53:43.525Z,58.68
2022-09-21T08:56:16.549Z,59.38
2022-09-21T08:58:49.517Z,59.56
2022-09-21T09:01:48.802Z,60.32
2022-09-21T09:04:39.045Z,59.32
2022-09-21T09:07:28.477Z,59.24
2022-09-21T09:10:14.633Z,57.41
2022-09-21T09:12:58.321Z,56.69
2022-09-21T09:15:51.355Z,56.54
2022-09-21T09:18:32.357Z,55.59
2022-09-21T09:21:11.043Z,54.78
2022-09-21T09:23:48.207Z,54.12
2022-09-21T09:26:27.607Z,52.58
2022-09-21T09:29:02.611Z,52.89
2022-09-21T09:31:38.065Z,54.54
2022-09-21T09:34:15.862Z,54.88
2022-09-21T09:37:00.129Z,54.28
2022-09-21T09:39:32.775Z,53.99
2022-09-21T09:42:22.648Z,54.88
2022-09-21T09:45:23.423Z,55.54
2022-09-21T09:48:09.965Z,57.07
2022-09-21T09:50:42.914Z,56.85
2022-09-21T09:53:18.709Z,55.49
2022-09-21T09:55:53.711Z,55.68
2022-09-21T09:58:39.055Z,54.58
2022-09-21T10:01:41.996Z,54.77
2022-09-21T10:04:16.805Z,55.00
2022-09-21T10:06:49.223Z,53.74
2022-09-21T10:09:27.596Z,54.53
2022-09-21T10:12:06.863Z,52.91
2022-09-21T10:14:49.372Z,52.78
2022-09-21T10:17:24.104Z,51.49
2022-09-21T10:20:00.639Z,51.83
2022-09-21T10:22:33.007Z,51.72
2022-09-21T10:25:07.816Z,50.34
2022-09-21T10:27:46.201Z,52.08
2022-09-21T10:30:37.898Z,50.63
2022-09-21T10:33:19.787Z,51.24
2022-09-21T10:35:53.207Z,50.11
2022-09-21T10:38:27.490Z,48.56
2022-09-21T10:40:59.834Z,47.54
2022-09-21T10:43:43.624Z,47.59
2022-09-21T10:46:16.457Z,46.16
2022-09-21T10:48:49.695Z,45.04
2022-09-21T10:51:28.433Z,45.28
2022-09-21T10:54:00.988Z,44.89
2022-09-21T10:56:33.302Z,44.56
2022-09-21T10:59:20.658Z,45.94
2022-09-21T11:01:54.758Z,46.66
2022-09-21T11:04:36.175Z,46.49
2022-09-21T11:07:17.694Z,46.71
2022-09-21T11:09:56.586Z,47.16
2022-09-21T11:12:37.885Z,48.38
2022-09-21T11:15:20.162Z,46.82
2022-09-21T11:18:00.290Z,45.91
2022-09-21T11:20:41.791Z,46.71
2022-09-21T11:23:26.586Z,46.10
2022-09-21T11:26:09.994Z,49.01
2022-09-21T11:28:49.444Z,46.05
2022-09-21T11:31:43.795Z,46.71
2022-09-21T11:34:43.433Z,43.31
2022-09-21T11:37:21.734Z,45.29
2022-09-21T11:40:06.738Z,43.81
2022-09-21T11:42:54.928Z,43.24
2022-09-21T11:45:58.067Z,47.04
2022-09-21T11:48:42.441Z,47.02
2022-09-21T11:51:36.883Z,47.58
2022-09-21T11:54:38.403Z,44.76
2022-09-21T11:57:19.520Z,45.00
2022-09-21T12:00:07.138Z,45.97
2022-09-21T12:03:02.299Z,44.93
2022-09-21T12:05:40.770Z,45.57
2022-09-21T12:08:33.317Z,46.76
2022-09-21T12:11:14.378Z,50.30
2022-09-21T12:13:55.047Z,52.03
2022-09-21T12:16:35.737Z,52.25
2022-09-21T12:19:18.629Z,52.89
2022-09-21T12:21:56.330Z,51.21
2022-09-21T12:24:32.985Z,51.17
2022-09-21T12:27:12.482Z,51.00
2022-09-21T12:29:49.266Z,52.20
2022-09-21T12:32:26.870Z,50.18
2022-09-21T12:35:02.670Z,50.28
2022-09-21T12:37:40.197Z,50.77
2022-09-21T12:40:22.406Z,51.58
2022-09-21T12:43:03.051Z,50.33
2022-09-21T12:45:39.558Z,49.89
2022-09-21T12:48:22.550Z,49.92
2022-09-21T12:50:57.332Z,48.78
2022-09-21T12:53:32.929Z,49.79
2022-09-21T12:56:09.962Z,49.94
2022-09-21T12:59:06.488Z,49.81
2022-09-21T13:01:45.466Z,49.52
2022-09-21T13:04:31.249Z,49.42
2022-09-21T13:07:45.552Z,50.47
2022-09-21T13:10:30.944Z,49.31
2022-09-21T13:13:07.361Z,49.37
2022-09-21T13:15:44.458Z,50.47
2022-09-21T13:18:21.443Z,50.24
2022-09-21T13:20:54.933Z,50.08
2022-09-21T13:23:33.291Z,49.93
2022-09-21T13:26:08.171Z,50.21
2022-09-21T13:28:59.778Z,50.73
2022-09-21T13:31:58.578Z,50.72
2022-09-21T13:34:33.840Z,51.71
2022-09-21T13:37:33.194Z,52.40
2022-09-21T13:40:48.838Z,52.14
2022-09-21T13:43:23.567Z,52.18
2022-09-21T13:45:57.563Z,51.07
2022-09-21T13:48:30.719Z,50.52
2022-09-21T13:51:08.606Z,50.80
2022-09-21T13:53:41.540Z,48.44
2022-09-21T13:56:19.591Z,48.26
2022-09-21T13:58:54.643Z,47.68
2022-09-21T14:01:48.945Z,47.50
2022-09-21T14:04:26.437Z,45.42
2022-09-21T14:07:03.546Z,45.41
2022-09-21T14:09:41.687Z,45.44
2022-09-21T14:12:20.861Z,46.30
2022-09-21T14:15:28.339Z,46.51
2022-09-21T14:18:46.237Z,45.77
2022-09-21T14:21:20.206Z,45.28
2022-09-21T14:24:29.281Z,44.91
2022-09-21T14:27:11.070Z,45.10
2022-09-21T14:29:48.088Z,45.24
2022-09-21T14:32:23.566Z,45.73
2022-09-21T14:35:07.419Z,46.50
2022-09-21T14:37:44.494Z,46.96
2022-09-21T14:40:20.660Z,46.94
2022-09-21T14:42:54.878Z,47.21
2022-09-21T14:45:45.017Z,47.05
2022-09-21T14:48:29.797Z,46.89
2022-09-21T14:51:10.310Z,47.67
2022-09-21T14:54:25.519Z,48.32
2022-09-21T14:57:29.775Z,48.06
2022-09-21T15:00:14.276Z,48.42
2022-09-21T15:02:49.381Z,48.67
2022-09-21T15:05:28.776Z,48.98
2022-09-21T15:08:35.911Z,49.43
2022-09-21T15:11:15.623Z,50.00
2022-09-21T15:13:58.607Z,51.51
2022-09-21T15:16:38.701Z,51.56
2022-09-21T15:19:15.487Z,51.62
2022-09-21T15:21:50.058Z,50.97
2022-09-21T15:24:27.118Z,51.21
2022-09-21T15:27:09.468Z,51.66
2022-09-21T15:29:46.683Z,51.85
2022-09-21T15:32:30.267Z,52.06
2022-09-21T15:35:05.995Z,52.02
2022-09-21T15:37:38.982Z,51.44
2022-09-21T15:40:18.062Z,50.94
2022-09-21T15:43:03.598Z,49.73
2022-09-21T15:45:47.481Z,50.52
2022-09-21T15:48:20.466Z,50.09
2022-09-21T15:50:57.247Z,50.10
2022-09-21T15:53:35.639Z,50.79
2022-09-21T15:56:17.859Z,50.12
2022-09-21T15:58:52.609Z,50.27
2022-09-21T16:01:25.185Z,50.84
2022-09-21T16:04:04.944Z,51.13
2022-09-21T16:06:40.831Z,51.59
2022-09-21T16:09:40.675Z,51.18
2022-09-21T16:12:38.897Z,51.10
2022-09-21T16:15:18.841Z,51.76
2022-09-21T16:17:57.727Z,52.50
2022-09-21T16:20:42.544Z,52.51
2022-09-21T16:23:17.219Z,53.02
2022-09-21T16:25:54.456Z,53.35
2022-09-21T16:28:35.976Z,53.36
2022-09-21T16:31:32.593Z,55.53
2022-09-21T16:34:21.099Z,55.04
2022-09-21T16:36:54.121Z,54.91
2022-09-21T16:39:28.386Z,55.23
2022-09-21T16:42:03.959Z,56.15
2022-09-21T16:44:40.309Z,56.39
2022-09-21T16:47:15.288Z,56.55
2022-09-21T16:49:47.608Z,56.44
2022-09-21T16:52:20.832Z,57.51
2022-09-21T16:54:54.154Z,57.05
2022-09-21T16:57:26.677Z,57.67
2022-09-21T16:59:58.994Z,58.72
2022-09-21T17:02:31.990Z,58.75
2022-09-21T17:05:04.844Z,60.37
2022-09-21T17:07:37.202Z,61.30
2022-09-21T17:10:14.595Z,62.73
2022-09-21T17:12:47.132Z,63.81
2022-09-21T17:15:20.498Z,66.38
2022-09-21T17:17:53.493Z,66.38
2022-09-21T17:20:32.666Z,66.93
2022-09-21T17:23:06.538Z,67.34
2022-09-21T17:25:38.865Z,68.48
2022-09-21T17:28:14.346Z,67.87
2022-09-21T17:30:48.064Z,68.67
2022-09-21T17:33:22.387Z,68.43
2022-09-21T17:35:56.099Z,68.17
2022-09-21T17:38:34.709Z,67.62
2022-09-21T17:41:17.804Z,67.88
2022-09-21T17:43:57.914Z,66.60
2022-09-21T17:46:40.370Z,66.60
2022-09-21T17:49:13.886Z,66.69
2022-09-21T17:52:04.950Z,67.25
2022-09-21T17:54:39.154Z,66.67
2022-09-21T17:57:26.271Z,66.60
2022-09-21T18:00:04.221Z,66.61
2022-09-21T18:02:38.005Z,66.32
2022-09-21T18:05:22.131Z,66.62
2022-09-21T18:07:55.208Z,67.24
2022-09-21T18:10:29.730Z,67.56
2022-09-21T18:13:23.726Z,67.73
2022-09-21T18:16:19.135Z,68.16
2022-09-21T18:19:01.383Z,68.36
2022-09-21T18:21:40.035Z,69.31
2022-09-21T18:24:21.178Z,69.63
2022-09-21T18:26:54.571Z,69.60
2022-09-21T18:29:46.548Z,70.47
2022-09-21T18:32:43.569Z,71.10
2022-09-21T18:35:27.528Z,71.62
2022-09-21T18:38:12.594Z,70.82
2022-09-21T18:41:03.519Z,71.03
2022-09-21T18:43:49.347Z,71.72
2022-09-21T18:46:28.478Z,71.80
2022-09-21T18:49:05.695Z,72.10
2022-09-21T18:51:46.250Z,72.07
2022-09-21T18:54:22.397Z,72.95
2022-09-21T18:56:55.420Z,73.41
2022-09-21T18:59:31.924Z,73.60
2022-09-21T19:02:14.590Z,73.24
2022-09-21T19:04:48.589Z,72.82
2022-09-21T19:07:29.477Z,72.21
2022-09-21T19:10:15.135Z,72.28
2022-09-21T19:13:03.219Z,72.97
2022-09-21T19:15:59.877Z,73.55
2022-09-21T19:18:42.672Z,73.26
2022-09-21T19:21:26.114Z,73.71
2022-09-21T19:24:09.468Z,74.49
2022-09-21T19:27:03.130Z,75.00
2022-09-21T19:29:47.970Z,74.50
2022-09-21T19:32:31.768Z,75.24
2022-09-21T19:35:24.426Z,75.57
2022-09-21T19:37:58.175Z,75.43
2022-09-21T19:40:32.970Z,74.95
2022-09-21T19:43:25.592Z,75.63
2022-09-21T19:46:10.851Z,76.09
2022-09-21T19:48:45.626Z,75.11
2022-09-21T19:51:19.950Z,75.46
2022-09-21T19:54:13.648Z,75.73
2022-09-21T19:57:06.209Z,76.36
2022-09-21T19:59:42.730Z,75.58
2022-09-21T20:02:19.249Z,73.81
2022-09-21T20:04:57.546Z,73.58
2022-09-21T20:07:41.900Z,73.11
2022-09-21T20:10:41.447Z,72.89
2022-09-21T20:13:21.117Z,72.28
2022-09-21T20:16:02.998Z,71.48
2022-09-21T20:18:41.886Z,71.75
2022-09-21T20:21:18.849Z,72.02
2022-09-21T20:23:59.204Z,71.68
2022-09-21T20:26:32.009Z,72.02
2022-09-21T20:29:04.637Z,72.30
2022-09-21T20:31:37.631Z,72.41
2022-09-21T20:34:10.526Z,72.67
2022-09-21T20:36:42.785Z,72.49
2022-09-21T20:39:15.103Z,71.95
2022-09-21T20:41:48.067Z,71.33
2022-09-21T20:44:21.288Z,71.67
2022-09-21T20:46:54.250Z,71.19
2022-09-21T20:49:26.534Z,71.24
2022-09-21T20:52:00.463Z,72.40
2022-09-21T20:54:32.775Z,72.37
2022-09-21T20:57:05.244Z,73.03
2022-09-21T20:59:37.634Z,73.39
2022-09-21T21:02:11.854Z,73.65
2022-09-21T21:04:44.182Z,73.67
2022-09-21T21:07:16.481Z,73.79
2022-09-21T21:09:48.822Z,73.32
2022-09-21T21:12:21.187Z,73.81
2022-09-21T21:14:53.900Z,74.41
2022-09-21T21:17:26.840Z,74.99
2022-09-21T21:19:59.089Z,74.91
2022-09-21T21:22:31.618Z,75.60
2022-09-21T21:25:04.797Z,74.15
2022-09-21T21:27:37.211Z,74.82
2022-09-21T21:30:10.615Z,74.62
2022-09-21T21:32:43.542Z,74.49
2022-09-21T21:35:15.934Z,74.51
2022-09-21T21:37:48.224Z,75.41
2022-09-21T21:40:20.606Z,75.24
2022-09-21T21:42:55.413Z,75.38
2022-09-21T21:45:27.677Z,75.34
2022-09-21T21:48:01.725Z,75.73
2022-09-21T21:50:35.191Z,75.36
2022-09-21T21:53:07.550Z,74.27
2022-09-21T21:55:39.910Z,75.41
2022-09-21T21:58:12.233Z,75.16
2022-09-21T22:00:45.173Z,75.49
2022-09-21T22:03:18.183Z,75.40
2022-09-21T22:05:55.386Z,75.24
2022-09-21T22:08:27.773Z,75.51
2022-09-21T22:11:00.505Z,75.10
2022-09-21T22:13:36.052Z,74.83
2022-09-21T22:16:11.235Z,77.13
2022-09-21T22:18:45.588Z,76.63
2022-09-21T22:21:20.918Z,76.51
2022-09-21T22:23:53.963Z,76.64
2022-09-21T22:26:28.075Z,75.92
2022-09-21T22:29:03.422Z,75.59
2022-09-21T22:31:38.299Z,76.47
2022-09-21T22:34:12.247Z,77.16
2022-09-21T22:36:44.779Z,77.94
2022-09-21T22:39:17.161Z,77.50
2022-09-21T22:41:49.851Z,77.32
2022-09-21T22:44:22.209Z,77.90
2022-09-21T22:46:54.518Z,77.24
2022-09-21T22:49:27.482Z,78.30
2022-09-21T22:51:59.814Z,78.54
2022-09-21T22:54:32.146Z,79.08
2022-09-21T22:57:04.801Z,78.08
2022-09-21T22:59:37.166Z,79.07
2022-09-21T23:02:09.756Z,78.98
2022-09-21T23:04:43.378Z,78.70
2022-09-21T23:07:17.015Z,77.47
2022-09-21T23:09:50.681Z,78.10
2022-09-21T23:12:23.006Z,78.04
2022-09-21T23:14:55.325Z,79.21
2022-09-21T23:17:28.295Z,79.15
2022-09-21T23:20:02.047Z,78.94
2022-09-21T23:22:34.346Z,78.63
2022-09-21T23:25:07.386Z,78.07
2022-09-21T23:27:39.659Z,78.16
2022-09-21T23:30:12.285Z,77.74
2022-09-21T23:32:44.626Z,78.60
2022-09-21T23:35:17.636Z,78.34
2022-09-21T23:37:50.100Z,78.49
2022-09-21T23:40:22.531Z,78.45
2022-09-21T23:42:54.887Z,79.16
2022-09-21T23:45:27.182Z,80.40
2022-09-21T23:47:59.486Z,79.93
2022-09-21T23:50:32.492Z,80.34
2022-09-21T23:53:04.789Z,80.50
2022-09-21T23:55:37.106Z,80.70
2022-09-21T23:58:09.431Z,80.99
